Time;durP1;ratioP1;P1;durP2;ratioP2;P2;SDS_P1;SDS_P2;PMS_P1;PMS_P2;Temp;Humidity;BMP_temperature;BMP_pressure;BME280_temperature;BME280_humidity;BME280_pressure;Samples;Min_cycle;Max_cycle;Signal;HPM_P1;HPM_P2
2021/12/21 00:00:35;;;;;;;21.50;11.73;;;;;;;1.81;100.00;102831.16;5056749;28;20035;-76
2021/12/21 00:03:03;;;;;;;18.48;11.65;;;;;;;1.58;100.00;102829.19;5051106;28;20025;-76
2021/12/21 00:05:30;;;;;;;18.75;11.10;;;;;;;1.67;100.00;102824.59;5068877;28;20125;-76
2021/12/21 00:08:03;;;;;;;22.73;11.07;;;;;;;1.63;100.00;102829.50;5067192;28;20028;-77
2021/12/21 00:10:31;;;;;;;20.00;11.68;;;;;;;1.58;100.00;102833.75;5067783;28;20025;-77
2021/12/21 00:13:20;;;;;;;20.55;11.32;;;;;;;1.67;100.00;102827.31;5052247;28;20158;-75
2021/12/21 00:21:13;;;;;;;18.23;10.88;;;;;;;1.51;100.00;102832.75;5047094;28;20044;-76
2021/12/21 00:26:08;;;;;;;18.65;10.93;;;;;;;1.46;100.00;102830.59;5054744;28;20115;-75
2021/12/21 00:28:48;;;;;;;18.30;11.10;;;;;;;1.40;100.00;102820.47;5057978;28;20017;-76
2021/12/21 00:31:14;;;;;;;20.73;11.32;;;;;;;1.44;100.00;102819.94;5056396;28;20475;-77
2021/12/21 00:33:41;;;;;;;19.20;10.88;;;;;;;1.46;100.00;102822.47;5056845;28;20029;-77
2021/12/21 00:36:08;;;;;;;17.92;11.20;;;;;;;1.43;100.00;102820.94;5048352;28;20021;-75
2021/12/21 00:38:34;;;;;;;21.13;11.27;;;;;;;1.46;100.00;102820.63;5053288;28;20505;-76
2021/12/21 00:40:59;;;;;;;20.55;11.85;;;;;;;1.40;100.00;102821.28;5063609;28;20028;-77
2021/12/21 00:43:25;;;;;;;21.27;10.77;;;;;;;1.33;100.00;102809.50;5054858;28;20717;-75
2021/12/21 00:45:50;;;;;;;22.88;10.90;;;;;;;1.24;100.00;102800.53;5017005;28;20035;-75
2021/12/21 00:48:17;;;;;;;18.67;11.60;;;;;;;1.26;100.00;102797.66;5047619;28;20040;-76
2021/12/21 00:50:43;;;;;;;17.73;10.98;;;;;;;1.35;100.00;102806.63;5046118;28;20029;-76
2021/12/21 00:53:09;;;;;;;17.33;11.30;;;;;;;1.35;100.00;102804.75;5058544;28;20032;-76
2021/12/21 00:55:34;;;;;;;21.92;11.20;;;;;;;1.33;100.00;102798.69;5059845;28;20033;-76
2021/12/21 00:58:01;;;;;;;21.92;11.20;;;;;;;1.32;100.00;102798.84;5039874;28;20036;-76
2021/12/21 01:00:27;;;;;;;16.52;11.30;;;;;;;1.26;100.00;102797.66;5056656;28;20035;-77
2021/12/21 01:02:53;;;;;;;19.33;11.63;;;;;;;1.19;100.00;102800.22;5058406;28;20040;-75
2021/12/21 01:05:32;;;;;;;21.30;11.35;;;;;;;1.10;100.00;102796.69;5050729;28;20068;-76
2021/12/21 01:08:02;;;;;;;21.30;10.52;;;;;;;1.10;100.00;102793.16;5051233;28;20029;-76
2021/12/21 01:13:25;;;;;;;21.85;12.20;;;;;;;0.99;100.00;102790.81;5048919;28;20082;-76
2021/12/21 01:18:34;;;;;;;23.15;12.10;;;;;;;1.05;100.00;102787.41;5051087;28;20444;-76
2021/12/21 01:21:37;;;;;;;26.40;11.65;;;;;;;1.08;100.00;102787.94;5044822;28;20483;-77
2021/12/21 01:24:52;;;;;;;20.90;11.60;;;;;;;0.99;100.00;102780.84;5043877;28;20095;-77
2021/12/21 01:37:29;;;;;;;23.07;12.00;;;;;;;0.89;100.00;102783.72;5046746;28;20029;-76
2021/12/21 01:40:03;;;;;;;22.63;12.90;;;;;;;0.66;100.00;102780.03;5050451;28;20016;-77
2021/12/21 01:42:51;;;;;;;17.90;12.27;;;;;;;0.70;100.00;102776.78;5043314;28;20041;-75
2021/12/21 01:50:51;;;;;;;23.10;12.20;;;;;;;0.85;100.00;102773.41;5051314;28;20099;-77
2021/12/21 01:53:16;;;;;;;26.98;11.88;;;;;;;0.90;100.00;102765.66;5042050;28;20067;-76
2021/12/21 01:55:42;;;;;;;21.23;11.43;;;;;;;0.90;100.00;102766.50;5055604;28;20091;-76
2021/12/21 01:58:18;;;;;;;21.52;11.13;;;;;;;0.82;100.00;102768.34;5060388;28;20475;-76
2021/12/21 02:00:44;;;;;;;21.45;12.15;;;;;;;0.86;100.00;102773.25;5060992;28;20043;-77
2021/12/21 02:03:11;;;;;;;17.90;11.55;;;;;;;0.78;100.00;102772.41;5067191;28;20040;-77
2021/12/21 02:05:37;;;;;;;18.45;11.07;;;;;;;0.76;100.00;102769.88;5060298;28;20032;-76
2021/12/21 02:08:04;;;;;;;18.95;12.68;;;;;;;0.68;100.00;102773.41;5054217;28;20085;-77
2021/12/21 02:10:30;;;;;;;20.63;11.60;;;;;;;0.79;100.00;102769.56;5060417;28;20079;-76
2021/12/21 02:12:55;;;;;;;25.15;12.18;;;;;;;0.76;100.00;102760.94;5063786;28;20431;-75
2021/12/21 02:15:24;;;;;;;21.63;11.73;;;;;;;0.75;100.00;102768.19;5052925;28;20161;-76
2021/12/21 02:20:26;;;;;;;24.17;11.68;;;;;;;0.73;100.00;102762.97;5052938;28;20049;-75
2021/12/21 02:23:00;;;;;;;21.40;12.20;;;;;;;0.65;100.00;102762.97;5062178;28;20364;-76
2021/12/21 02:30:45;;;;;;;19.83;11.75;;;;;;;0.61;100.00;102756.22;5059847;28;20028;-76
2021/12/21 02:33:14;;;;;;;20.73;11.75;;;;;;;0.61;100.00;102760.75;5064487;28;20040;-77
2021/12/21 02:35:41;;;;;;;20.85;11.75;;;;;;;0.39;100.00;102759.56;5060411;28;20039;-76
2021/12/21 02:38:07;;;;;;;18.48;11.05;;;;;;;0.53;100.00;102758.91;5032261;28;20029;-75
2021/12/21 02:40:34;;;;;;;23.70;12.73;;;;;;;0.62;100.00;102766.00;5061057;28;20777;-77
2021/12/21 02:43:01;;;;;;;23.17;13.00;;;;;;;0.57;100.00;102762.97;5062578;28;20021;-76
2021/12/21 02:45:27;;;;;;;20.83;12.15;;;;;;;0.40;100.00;102764.81;5019436;28;20037;-76
2021/12/21 02:47:53;;;;;;;22.38;11.95;;;;;;;0.26;100.00;102766.28;5053577;28;20024;-76
2021/12/21 02:50:18;;;;;;;22.58;12.38;;;;;;;0.45;100.00;102767.84;5050728;28;20028;-76
2021/12/21 02:52:46;;;;;;;20.80;11.35;;;;;;;0.50;100.00;102770.06;5050082;28;20348;-76
2021/12/21 02:55:13;;;;;;;22.20;11.50;;;;;;;0.50;100.00;102764.66;5054925;28;20078;-76
2021/12/21 02:57:38;;;;;;;19.90;12.38;;;;;;;0.51;100.00;102763.66;5041572;28;20064;-76
2021/12/21 03:00:06;;;;;;;21.27;11.85;;;;;;;0.50;100.00;102770.06;5024574;28;20115;-76
2021/12/21 03:02:32;;;;;;;22.88;12.80;;;;;;;0.39;100.00;102763.13;5024480;28;20483;-76
2021/12/21 03:04:58;;;;;;;19.42;11.57;;;;;;;0.38;100.00;102768.69;5030872;28;20028;-76
2021/12/21 03:08:13;;;;;;;17.63;11.27;;;;;;;0.44;100.00;102770.72;5052013;28;20455;-76
2021/12/21 03:10:13;;;;;;;16.38;11.05;;;;;;;0.44;100.00;102771.53;5057025;28;20047;-75
2021/12/21 03:15:27;;;;;;;18.45;11.05;;;;;;;0.36;100.00;102760.75;5037504;28;20455;-76
2021/12/21 03:17:53;;;;;;;21.63;12.02;;;;;;;0.40;100.00;102763.97;5048568;28;20035;-76
2021/12/21 03:20:21;;;;;;;16.88;10.65;;;;;;;0.46;100.00;102763.28;5046497;28;20037;-77
2021/12/21 03:22:47;;;;;;;21.27;11.65;;;;;;;0.45;100.00;102764.31;5037333;28;20032;-76
2021/12/21 03:25:13;;;;;;;21.55;11.13;;;;;;;0.42;100.00;102757.38;5059804;28;20024;-75
2021/12/21 03:27:38;;;;;;;20.25;10.70;;;;;;;0.46;100.00;102755.19;5041203;28;20308;-76
2021/12/21 03:30:07;;;;;;;18.45;10.82;;;;;;;0.42;100.00;102752.00;5049614;28;20445;-77
2021/12/21 03:32:33;;;;;;;17.38;11.07;;;;;;;0.40;100.00;102751.31;5043717;28;20031;-77
2021/12/21 03:34:59;;;;;;;20.50;10.77;;;;;;;0.40;100.00;102742.38;5050926;28;20028;-77
2021/12/21 03:37:24;;;;;;;16.48;11.02;;;;;;;0.45;100.00;102753.53;5059902;28;20045;-76
2021/12/21 03:39:52;;;;;;;17.98;11.00;;;;;;;0.42;100.00;102748.47;5051583;28;20456;-76
2021/12/21 03:42:18;;;;;;;20.13;11.48;;;;;;;0.31;100.00;102753.19;5051957;28;20039;-77
2021/12/21 03:44:44;;;;;;;24.38;11.40;;;;;;;0.31;100.00;102753.19;5038494;28;20029;-76
2021/12/21 03:47:11;;;;;;;17.98;11.30;;;;;;;0.32;100.00;102741.34;5060794;28;20032;-76
2021/12/21 03:52:11;;;;;;;18.55;10.70;;;;;;;0.14;100.00;102738.81;5049429;28;20028;-76
2021/12/21 03:54:40;;;;;;;22.52;12.75;;;;;;;0.11;100.00;102736.44;5048154;28;20029;-77
2021/12/21 03:57:05;;;;;;;21.63;11.40;;;;;;;0.14;100.00;102738.81;5042436;28;20099;-76
2021/12/21 03:59:31;;;;;;;20.17;11.13;;;;;;;0.20;100.00;102747.22;5048691;28;20360;-76
2021/12/21 04:01:58;;;;;;;21.10;11.23;;;;;;;0.06;100.00;102741.47;5050839;28;20064;-77
2021/12/21 04:04:24;;;;;;;21.90;12.30;;;;;;;0.12;100.00;102742.69;5056867;28;20347;-76
2021/12/21 04:06:50;;;;;;;22.65;11.60;;;;;;;0.17;100.00;102733.06;5047495;28;20051;-76
2021/12/21 04:09:18;;;;;;;18.65;11.10;;;;;;;0.22;100.00;102735.28;5047936;28;20040;-76
2021/12/21 04:11:43;;;;;;;23.92;11.95;;;;;;;0.21;100.00;102730.06;5048460;28;20526;-76
2021/12/21 04:14:11;;;;;;;22.02;10.82;;;;;;;0.21;100.00;102730.88;5047316;28;20033;-77
2021/12/21 04:16:37;;;;;;;21.45;10.88;;;;;;;0.19;100.00;102714.03;5023491;28;20040;-76
2021/12/21 04:19:06;;;;;;;21.33;11.70;;;;;;;0.17;100.00;102716.06;5048343;28;20120;-77
2021/12/21 04:21:31;;;;;;;19.10;10.82;;;;;;;0.16;100.00;102715.22;5059580;28;20048;-76
2021/12/21 04:23:57;;;;;;;19.70;11.32;;;;;;;0.20;100.00;102718.44;5042921;28;20025;-77
2021/12/21 04:26:23;;;;;;;20.42;11.40;;;;;;;0.10;100.00;102723.09;5044908;28;20108;-77
2021/12/21 04:28:50;;;;;;;19.77;11.00;;;;;;;0.05;100.00;102718.25;5026035;28;20036;-75
2021/12/21 04:31:16;;;;;;;20.15;11.63;;;;;;;-0.35;100.00;102714.41;5041718;28;20047;-76
2021/12/21 04:33:42;;;;;;;22.90;10.85;;;;;;;-0.03;100.00;102710.97;5040388;28;20180;-76
2021/12/21 04:36:10;;;;;;;16.02;11.43;;;;;;;0.05;100.00;102715.53;5051096;28;20028;-77
2021/12/21 04:38:39;;;;;;;22.38;11.98;;;;;;;-0.10;100.00;102720.75;5043757;28;20032;-77
2021/12/21 04:41:14;;;;;;;24.20;12.98;;;;;;;0.06;100.00;102727.16;5045295;28;20040;-77
2021/12/21 04:43:41;;;;;;;24.45;11.80;;;;;;;0.09;100.00;102721.44;5046193;28;20016;-77
2021/12/21 04:46:07;;;;;;;19.27;11.50;;;;;;;0.04;100.00;102716.53;5042009;28;20039;-77
2021/12/21 04:48:33;;;;;;;21.50;11.82;;;;;;;-0.10;100.00;102714.47;5045888;28;20384;-77
2021/12/21 04:50:58;;;;;;;20.40;10.90;;;;;;;0.01;100.00;102716.03;5061746;28;20465;-77
2021/12/21 04:53:24;;;;;;;18.67;11.25;;;;;;;-0.08;100.00;102718.72;5066038;28;20051;-77
2021/12/21 04:55:50;;;;;;;20.73;10.13;;;;;;;-0.07;100.00;102719.53;5051414;28;20445;-76
2021/12/21 04:58:16;;;;;;;17.65;10.52;;;;;;;-0.09;100.00;102726.97;5043243;28;20043;-77
2021/12/21 05:00:41;;;;;;;20.17;10.80;;;;;;;-0.08;100.00;102723.25;5045915;28;20024;-77
2021/12/21 05:03:07;;;;;;;23.17;10.98;;;;;;;-0.15;100.00;102720.38;5065089;28;20031;-77
2021/12/21 05:05:33;;;;;;;20.85;10.13;;;;;;;-0.05;100.00;102721.09;5062588;28;20061;-75
2021/12/21 05:08:07;;;;;;;20.30;11.77;;;;;;;-0.02;100.00;102715.38;5058293;28;20023;-77
2021/12/21 05:10:37;;;;;;;20.52;11.90;;;;;;;-0.24;100.00;102715.97;5049913;28;20029;-76
2021/12/21 05:13:04;;;;;;;18.35;11.65;;;;;;;-0.37;100.00;102708.34;5047256;28;20029;-75
2021/12/21 05:15:33;;;;;;;18.13;10.50;;;;;;;-0.23;100.00;102709.56;5043461;28;20443;-76
2021/12/21 05:18:01;;;;;;;14.80;11.13;;;;;;;-0.30;100.00;102717.47;5055938;28;20024;-75
2021/12/21 05:20:27;;;;;;;19.88;11.20;;;;;;;-0.17;100.00;102708.91;5054160;28;20086;-76
2021/12/21 05:22:52;;;;;;;16.27;11.05;;;;;;;-0.09;100.00;102710.78;5061596;28;20028;-76
2021/12/21 05:25:18;;;;;;;20.10;10.10;;;;;;;-0.14;100.00;102697.78;5030250;28;20020;-76
2021/12/21 05:27:44;;;;;;;19.10;10.85;;;;;;;-0.14;100.00;102703.19;5046002;28;20029;-76
2021/12/21 05:30:10;;;;;;;19.42;10.75;;;;;;;-0.17;100.00;102700.81;5052215;28;20029;-77
2021/12/21 05:32:36;;;;;;;16.92;9.95;;;;;;;-0.12;100.00;102703.84;5054500;28;20136;-76
2021/12/21 05:35:01;;;;;;;16.27;10.98;;;;;;;-0.12;100.00;102703.84;5059460;28;20128;-76
2021/12/21 05:37:27;;;;;;;20.15;10.95;;;;;;;-0.19;100.00;102694.75;5038155;28;20029;-77
2021/12/21 05:40:00;;;;;;;20.00;11.27;;;;;;;-0.16;100.00;102699.81;5049206;28;20032;-76
2021/12/21 05:42:26;;;;;;;17.58;10.02;;;;;;;-0.13;100.00;102704.03;5052130;28;20120;-77
2021/12/21 05:44:51;;;;;;;15.00;10.45;;;;;;;-0.19;100.00;102705.53;5045736;28;20050;-76
2021/12/21 05:47:17;;;;;;;21.05;11.65;;;;;;;-0.30;100.00;102708.53;5048812;28;20036;-76
2021/12/21 05:49:43;;;;;;;19.13;11.40;;;;;;;-0.24;100.00;102707.88;5042032;28;20086;-77
2021/12/21 05:52:09;;;;;;;21.05;11.57;;;;;;;-0.21;100.00;102708.41;5059622;28;20028;-76
2021/12/21 05:54:34;;;;;;;21.52;12.65;;;;;;;-0.24;100.00;102719.50;5055302;28;20025;-77
2021/12/21 05:57:00;;;;;;;22.17;13.00;;;;;;;-0.40;100.00;102716.75;5048179;28;20036;-76
2021/12/21 05:59:26;;;;;;;18.42;12.38;;;;;;;-0.50;100.00;102726.84;5027029;28;20121;-77
2021/12/21 06:01:51;;;;;;;20.60;11.90;;;;;;;-0.33;100.00;102725.03;5037183;28;20462;-77
2021/12/21 06:04:17;;;;;;;16.35;11.65;;;;;;;-0.27;100.00;102719.84;5055299;28;20348;-76
2021/12/21 06:06:42;;;;;;;23.02;12.55;;;;;;;-0.27;100.00;102716.31;5061617;28;20035;-75
2021/12/21 06:09:10;;;;;;;22.65;11.90;;;;;;;-0.29;100.00;102718.31;5031082;28;20029;-75
2021/12/21 06:11:48;;;;;;;21.85;11.95;;;;;;;-0.29;100.00;102719.16;5044017;28;20067;-76
2021/12/21 06:14:49;;;;;;;20.83;12.55;;;;;;;-0.30;100.00;102719.31;5057457;28;20032;-75
2021/12/21 06:27:41;;;;;;;21.90;12.98;;;;;;;-0.49;100.00;102707.81;5058054;28;20035;-75
2021/12/21 06:30:08;;;;;;;24.60;13.48;;;;;;;-0.52;100.00;102708.13;5050607;28;20064;-76
2021/12/21 06:32:33;;;;;;;23.27;13.50;;;;;;;-0.45;100.00;102708.31;5045578;28;20036;-75
2021/12/21 06:34:59;;;;;;;24.23;13.75;;;;;;;-0.40;100.00;102711.38;5046146;28;20316;-76
2021/12/21 06:37:24;;;;;;;22.52;12.95;;;;;;;-0.37;100.00;102713.75;5060835;28;20123;-75
2021/12/21 06:39:50;;;;;;;20.13;12.60;;;;;;;-0.40;100.00;102704.13;5062454;28;20021;-75
2021/12/21 06:42:17;;;;;;;19.35;12.82;;;;;;;-0.46;100.00;102703.94;5037839;28;20172;-78
2021/12/21 06:44:44;;;;;;;21.13;12.48;;;;;;;-0.44;100.00;102708.16;5059542;28;20123;-76
2021/12/21 06:52:41;;;;;;;23.60;13.30;;;;;;;-0.41;100.00;102713.22;5047950;28;20086;-76
2021/12/21 06:55:08;;;;;;;23.45;13.93;;;;;;;-0.39;100.00;102711.22;5047675;28;20471;-76
2021/12/21 06:57:34;;;;;;;19.92;12.82;;;;;;;-0.42;100.00;102716.09;5058985;28;20123;-77
2021/12/21 07:00:01;;;;;;;24.13;13.70;;;;;;;-0.49;100.00;102713.19;5058352;28;20563;-76
2021/12/21 07:02:27;;;;;;;21.10;12.82;;;;;;;-0.47;100.00;102708.47;5031766;28;20122;-76
2021/12/21 07:04:52;;;;;;;20.10;13.15;;;;;;;-0.44;100.00;102704.63;5056260;28;20045;-77
2021/12/21 07:07:18;;;;;;;18.88;12.23;;;;;;;-0.46;100.00;102715.56;5041252;28;20043;-76
2021/12/21 07:09:53;;;;;;;19.08;11.82;;;;;;;-0.40;100.00;102714.91;5054068;28;20032;-76
2021/12/21 07:20:19;;;;;;;25.80;13.65;;;;;;;-0.54;100.00;102726.31;5050125;28;20086;-75
2021/12/21 07:22:45;;;;;;;21.25;14.00;;;;;;;-0.58;100.00;102722.25;5052590;28;20467;-76
2021/12/21 07:25:11;;;;;;;22.42;13.63;;;;;;;-0.71;100.00;102721.84;5028669;28;20102;-76
2021/12/21 07:27:37;;;;;;;27.25;14.80;;;;;;;-0.56;100.00;102720.22;5054363;28;20036;-75
2021/12/21 07:30:05;;;;;;;23.00;15.23;;;;;;;-0.52;100.00;102723.47;5052916;28;20086;-77
2021/12/21 07:32:31;;;;;;;20.83;14.20;;;;;;;-0.51;100.00;102723.28;5063437;28;20032;-77
2021/12/21 07:34:57;;;;;;;27.90;16.00;;;;;;;-0.44;100.00;102720.81;5058546;28;20082;-77
2021/12/21 07:37:22;;;;;;;27.15;16.60;;;;;;;-0.45;100.00;102722.63;5054234;28;20033;-77
2021/12/21 07:39:48;;;;;;;20.27;14.10;;;;;;;-0.44;100.00;102720.81;5054646;28;20035;-75
2021/12/21 07:42:13;;;;;;;22.52;14.15;;;;;;;-0.48;100.00;102728.34;5054729;28;20364;-75
2021/12/21 07:44:39;;;;;;;22.20;14.75;;;;;;;-0.51;100.00;102728.66;5056183;28;20046;-76
2021/12/21 07:47:04;;;;;;;21.58;14.25;;;;;;;-0.49;100.00;102736.59;5056308;28;20036;-77
2021/12/21 07:49:30;;;;;;;20.75;13.93;;;;;;;-0.49;100.00;102726.69;5061581;28;20450;-77
2021/12/21 07:51:59;;;;;;;21.13;13.57;;;;;;;-0.47;100.00;102724.66;5041412;28;20047;-74
2021/12/21 07:54:24;;;;;;;27.67;15.65;;;;;;;-0.41;100.00;102721.31;5036224;28;20036;-76
2021/12/21 07:56:50;;;;;;;28.67;17.70;;;;;;;-0.53;100.00;102733.38;5043162;28;20044;-76
2021/12/21 07:59:16;;;;;;;42.13;24.20;;;;;;;-0.41;100.00;102728.53;5044989;28;20047;-76
2021/12/21 08:01:41;;;;;;;49.47;29.27;;;;;;;-0.37;100.00;102733.44;5043235;28;20041;-76
2021/12/21 08:04:07;;;;;;;46.28;28.55;;;;;;;-0.55;100.00;102738.09;5022199;28;20315;-76
2021/12/21 08:06:36;;;;;;;36.35;24.10;;;;;;;-0.37;100.00;102730.75;5064010;28;20047;-77
2021/12/21 08:09:04;;;;;;;30.13;19.42;;;;;;;-0.33;100.00;102741.22;5052124;28;20029;-76
2021/12/21 08:13:56;;;;;;;28.33;16.65;;;;;;;-0.54;100.00;102749.72;5053279;28;20035;-76
2021/12/21 08:16:22;;;;;;;28.52;19.02;;;;;;;-0.77;100.00;102753.81;5070058;28;20044;-76
2021/12/21 08:18:57;;;;;;;32.45;20.80;;;;;;;-0.83;100.00;102753.63;5062902;28;20047;-75
2021/12/21 08:21:25;;;;;;;28.98;19.10;;;;;;;-0.91;100.00;102765.16;5058228;28;20091;-76
2021/12/21 08:23:53;;;;;;;29.33;22.02;;;;;;;-0.84;100.00;102770.75;5054878;28;20033;-75
2021/12/21 08:26:19;;;;;;;44.80;29.17;;;;;;;-0.86;100.00;102772.78;5021079;28;20033;-76
2021/12/21 08:28:46;;;;;;;38.63;23.73;;;;;;;-0.47;100.00;102767.78;5045753;28;20040;-75
2021/12/21 08:31:12;;;;;;;35.72;23.17;;;;;;;-0.19;100.00;102767.53;5028196;28;20300;-76
2021/12/21 08:33:38;;;;;;;40.15;22.67;;;;;;;-0.11;100.00;102764.03;5049604;28;20044;-75
2021/12/21 08:36:08;;;;;;;30.52;19.98;;;;;;;-0.06;100.00;102772.47;5052400;28;20123;-76
2021/12/21 08:38:37;;;;;;;30.00;20.13;;;;;;;-0.10;100.00;102763.88;5042880;28;20040;-77
2021/12/21 08:41:03;;;;;;;30.70;19.30;;;;;;;0.06;100.00;102767.63;5055221;28;20040;-75
2021/12/21 08:43:31;;;;;;;33.00;20.77;;;;;;;0.02;100.00;102766.25;5047824;28;20044;-75
2021/12/21 08:45:57;;;;;;;30.20;18.73;;;;;;;0.15;100.00;102755.84;5041894;28;20070;-75
2021/12/21 08:48:24;;;;;;;26.75;17.50;;;;;;;0.21;100.00;102755.16;5044562;28;20064;-75
2021/12/21 08:50:55;;;;;;;29.48;18.45;;;;;;;0.22;100.00;102756.88;5050065;28;20359;-75
2021/12/21 08:53:22;;;;;;;26.70;17.80;;;;;;;0.26;100.00;102760.06;5049350;28;20044;-75
2021/12/21 08:55:48;;;;;;;30.38;17.73;;;;;;;0.42;100.00;102754.69;5052018;28;20029;-75
2021/12/21 08:58:14;;;;;;;29.02;18.23;;;;;;;0.45;100.00;102748.13;5053316;28;20207;-75
2021/12/21 09:00:41;;;;;;;26.15;18.05;;;;;;;0.60;100.00;102751.81;5049183;28;20512;-76
2021/12/21 09:03:07;;;;;;;28.55;19.40;;;;;;;0.55;100.00;102756.88;5047341;28;20051;-76
2021/12/21 09:05:34;;;;;;;31.80;18.88;;;;;;;0.67;100.00;102750.16;5054988;28;20052;-75
2021/12/21 09:08:02;;;;;;;29.60;21.23;;;;;;;0.76;100.00;102752.84;5043550;28;20024;-75
2021/12/21 09:10:28;;;;;;;31.67;21.20;;;;;;;0.76;100.00;102755.56;5045740;28;20025;-75
2021/12/21 09:12:54;;;;;;;35.65;20.83;;;;;;;0.95;100.00;102751.63;5054468;28;20082;-75
2021/12/21 09:15:21;;;;;;;32.28;19.58;;;;;;;1.07;100.00;102756.50;5061301;28;20024;-76
2021/12/21 09:17:47;;;;;;;34.67;20.58;;;;;;;1.18;100.00;102755.31;5062524;28;20028;-75
2021/12/21 09:20:16;;;;;;;32.15;18.58;;;;;;;1.22;100.00;102745.84;5062785;28;20093;-74
2021/12/21 09:22:42;;;;;;;31.45;20.58;;;;;;;1.32;100.00;102748.34;5048125;28;20028;-76
2021/12/21 09:25:09;;;;;;;31.08;20.35;;;;;;;1.29;100.00;102754.09;5050394;28;20037;-75
2021/12/21 09:27:36;;;;;;;33.85;20.80;;;;;;;1.46;100.00;102746.78;5051542;28;20028;-75
2021/12/21 09:30:03;;;;;;;29.90;18.42;;;;;;;1.59;100.00;102740.81;5061389;28;20300;-74
2021/12/21 09:32:28;;;;;;;30.02;19.23;;;;;;;1.71;100.00;102739.41;5063054;28;20039;-75
2021/12/21 09:34:55;;;;;;;34.75;20.25;;;;;;;1.74;100.00;102739.06;5062969;28;20036;-75
2021/12/21 09:37:21;;;;;;;26.88;17.13;;;;;;;1.85;100.00;102751.34;5022196;28;20099;-74
2021/12/21 09:39:50;;;;;;;30.13;17.60;;;;;;;1.83;100.00;102756.91;5043954;28;20041;-75
2021/12/21 09:42:19;;;;;;;31.50;17.92;;;;;;;1.84;100.00;102763.19;5042106;28;20063;-75
2021/12/21 09:44:45;;;;;;;27.60;17.92;;;;;;;2.05;100.00;102751.75;5042608;28;20111;-76
2021/12/21 09:47:12;;;;;;;26.95;17.35;;;;;;;2.14;100.00;102752.53;5046133;28;20209;-75
2021/12/21 09:49:38;;;;;;;28.05;17.75;;;;;;;2.13;100.00;102757.13;5047675;28;20040;-76
2021/12/21 09:52:07;;;;;;;26.58;16.02;;;;;;;2.27;100.00;102758.19;5043021;28;20055;-76
2021/12/21 09:54:34;;;;;;;22.98;16.40;;;;;;;2.51;100.00;102765.31;5045254;28;20122;-75
2021/12/21 09:57:01;;;;;;;22.75;16.30;;;;;;;2.18;100.00;102760.13;5045002;28;20411;-76
2021/12/21 09:59:27;;;;;;;23.15;16.35;;;;;;;2.17;100.00;102761.13;5026086;28;20044;-76
2021/12/21 10:01:55;;;;;;;23.52;15.68;;;;;;;2.36;100.00;102756.25;5043094;28;20527;-76
2021/12/21 10:04:21;;;;;;;32.30;16.38;;;;;;;2.28;100.00;102743.66;5007779;28;20259;-76
2021/12/21 10:06:49;;;;;;;26.85;16.00;;;;;;;2.64;100.00;102745.75;5010183;28;20025;-75
2021/12/21 10:09:18;;;;;;;23.33;14.43;;;;;;;2.70;100.00;102744.97;5042141;28;20464;-75
2021/12/21 10:11:47;;;;;;;25.80;15.65;;;;;;;2.48;100.00;102745.88;5043890;28;20045;-77
2021/12/21 10:14:14;;;;;;;20.65;13.52;;;;;;;2.65;100.00;102743.88;5039355;28;20451;-77
2021/12/21 10:16:40;;;;;;;23.15;13.75;;;;;;;2.76;100.00;102740.72;5055054;28;20043;-76
2021/12/21 10:19:06;;;;;;;21.05;14.20;;;;;;;2.56;100.00;102733.09;5022529;28;20244;-76
2021/12/21 10:21:44;;;;;;;19.73;14.00;;;;;;;2.55;100.00;102730.56;5061682;28;20068;-76
2021/12/21 10:24:09;;;;;;;23.45;13.82;;;;;;;2.57;100.00;102729.38;5066323;28;20036;-75
2021/12/21 10:26:35;;;;;;;25.38;14.65;;;;;;;2.76;100.00;102722.59;5061657;28;20051;-77
2021/12/21 10:29:07;;;;;;;24.65;14.57;;;;;;;2.82;100.00;102718.31;5020787;28;20653;-76
2021/12/21 10:31:36;;;;;;;20.48;15.05;;;;;;;2.77;100.00;102709.88;5044232;28;20052;-75
2021/12/21 10:34:12;;;;;;;28.50;14.65;;;;;;;2.88;100.00;102714.03;5039109;28;20025;-75
2021/12/21 10:36:51;;;;;;;22.95;14.32;;;;;;;2.75;100.00;102709.22;5048693;28;20060;-75
2021/12/21 10:39:22;;;;;;;22.02;14.20;;;;;;;2.73;100.00;102703.16;5041182;28;20052;-75
2021/12/21 10:41:48;;;;;;;21.27;13.52;;;;;;;2.58;100.00;102706.69;5044217;28;20371;-75
2021/12/21 10:44:19;;;;;;;25.38;14.20;;;;;;;2.47;100.00;102693.56;5043425;28;20029;-76
2021/12/21 10:46:47;;;;;;;23.83;13.43;;;;;;;2.78;100.00;102705.31;5054353;28;20081;-75
2021/12/21 10:49:19;;;;;;;22.65;13.48;;;;;;;2.79;100.00;102707.84;5041061;28;20017;-76
2021/12/21 10:52:00;;;;;;;22.03;14.20;;;;;;;2.54;100.00;102710.78;5046556;28;20120;-74
2021/12/21 10:54:33;;;;;;;21.02;13.20;;;;;;;2.81;100.00;102702.25;5042477;28;20889;-75
2021/12/21 10:57:00;;;;;;;17.60;12.63;;;;;;;2.80;100.00;102705.97;5061866;28;20107;-76
2021/12/21 10:59:30;;;;;;;19.05;12.38;;;;;;;2.89;100.00;102703.00;5055615;28;20319;-74
2021/12/21 11:02:11;;;;;;;22.23;12.65;;;;;;;2.96;100.00;102704.97;5063390;28;20036;-75
2021/12/21 11:04:38;;;;;;;19.63;12.57;;;;;;;3.15;100.00;102699.00;5064225;28;20332;-75
2021/12/21 11:10:11;;;;;;;20.52;12.43;;;;;;;3.22;100.00;102697.22;5056437;28;20060;-76
2021/12/21 11:12:48;;;;;;;22.80;12.75;;;;;;;2.93;100.00;102689.91;5040315;28;20355;-76
2021/12/21 11:15:35;;;;;;;20.63;12.38;;;;;;;3.03;100.00;102681.50;5038591;28;20045;-75
2021/12/21 11:18:05;;;;;;;24.05;12.70;;;;;;;3.21;100.00;102686.56;5040550;28;20198;-76
2021/12/21 11:20:33;;;;;;;21.90;12.93;;;;;;;3.26;100.00;102687.69;5041352;28;20052;-74
2021/12/21 11:23:00;;;;;;;23.95;13.05;;;;;;;2.99;100.00;102685.63;5043878;28;20033;-75
2021/12/21 11:25:25;;;;;;;17.23;11.75;;;;;;;3.34;100.00;102689.44;5042432;28;20132;-74
2021/12/21 11:27:51;;;;;;;17.40;11.43;;;;;;;3.50;100.00;102677.56;5043012;28;20060;-75
2021/12/21 11:30:20;;;;;;;21.48;13.93;;;;;;;3.56;100.00;102679.53;5053597;28;20059;-75
2021/12/21 11:32:50;;;;;;;24.10;12.70;;;;;;;2.97;100.00;102674.13;5061036;28;20062;-75
2021/12/21 11:37:48;;;;;;;18.35;12.10;;;;;;;3.13;100.00;102665.81;5066742;28;20031;-75
2021/12/21 11:40:19;;;;;;;21.27;12.38;;;;;;;3.46;100.00;102663.53;5066318;28;20490;-74
2021/12/21 11:42:51;;;;;;;17.63;11.85;;;;;;;3.48;100.00;102669.59;5055217;28;20020;-74
2021/12/21 11:45:33;;;;;;;18.23;11.20;;;;;;;3.72;100.00;102664.03;5044643;28;20040;-75
2021/12/21 11:48:02;;;;;;;13.80;11.02;;;;;;;3.83;100.00;102666.25;5046561;28;20024;-75
2021/12/21 11:50:28;;;;;;;18.75;11.85;;;;;;;3.72;100.00;102672.16;5047396;28;20158;-76
2021/12/21 11:53:01;;;;;;;19.35;12.20;;;;;;;3.65;100.00;102669.38;5045551;28;20107;-76
2021/12/21 11:55:28;;;;;;;16.25;10.45;;;;;;;3.60;100.00;102655.56;5050428;28;20068;-74
2021/12/21 11:57:57;;;;;;;15.00;10.48;;;;;;;3.78;100.00;102658.69;5048631;28;20033;-74
2021/12/21 12:00:29;;;;;;;18.15;10.45;;;;;;;3.87;100.00;102654.00;5062077;28;20031;-74
2021/12/21 12:02:56;;;;;;;17.15;10.43;;;;;;;3.73;100.00;102654.88;5064327;28;20020;-75
2021/12/21 12:05:23;;;;;;;17.20;11.25;;;;;;;3.77;100.00;102658.88;5048038;28;20500;-74
2021/12/21 12:08:08;;;;;;;14.23;9.88;;;;;;;3.91;100.00;102646.31;5067881;28;20025;-74
2021/12/21 12:10:37;;;;;;;16.20;10.05;;;;;;;3.86;100.00;102650.41;5065293;28;20039;-75
2021/12/21 12:13:15;;;;;;;16.73;10.38;;;;;;;4.19;100.00;102659.94;5064602;28;20025;-76
2021/12/21 12:15:45;;;;;;;19.17;11.77;;;;;;;4.28;100.00;102652.47;5064354;28;20485;-75
2021/12/21 12:18:22;;;;;;;22.33;11.55;;;;;;;3.85;100.00;102653.31;5059058;28;20187;-74
2021/12/21 12:20:48;;;;;;;14.88;11.25;;;;;;;3.91;100.00;102647.13;5065017;28;20048;-75
2021/12/21 12:23:16;;;;;;;18.83;10.23;;;;;;;4.04;100.00;102641.00;5065611;28;20062;-74
2021/12/21 12:26:03;;;;;;;19.48;11.43;;;;;;;3.87;100.00;102635.00;5065782;28;20063;-74